createdAt,value
2023-01-30T00:00:44.570Z,0.03
2023-01-30T00:02:47.110Z,0.02
2023-01-30T00:04:49.720Z,0.02
2023-01-30T00:06:52.290Z,-0.03
2023-01-30T00:08:56.300Z,0.00
2023-01-30T00:10:58.862Z,0.01
2023-01-30T00:13:01.441Z,-0.01
2023-01-30T00:15:04.077Z,-0.05
2023-01-30T00:17:06.656Z,-0.07
2023-01-30T00:19:09.420Z,-0.05
2023-01-30T00:21:14.389Z,-0.08
2023-01-30T00:23:16.902Z,-0.10
2023-01-30T00:25:20.892Z,-0.15
2023-01-30T00:27:23.588Z,-0.16
2023-01-30T00:29:26.132Z,-0.18
2023-01-30T00:31:28.779Z,-0.21
2023-01-30T00:33:31.438Z,-0.22
2023-01-30T00:35:34.159Z,-0.09
2023-01-30T00:37:39.607Z,-0.05
2023-01-30T00:39:42.154Z,-0.14
2023-01-30T00:42:03.505Z,-0.16
2023-01-30T00:44:24.548Z,-0.20
2023-01-30T00:47:03.886Z,-0.12
2023-01-30T00:49:06.584Z,0.05
2023-01-30T00:51:09.268Z,-0.13
2023-01-30T00:53:13.090Z,-0.14
2023-01-30T00:55:16.756Z,-0.13
2023-01-30T00:57:20.836Z,-0.09
2023-01-30T00:59:23.396Z,-0.10
2023-01-30T01:01:25.968Z,-0.06
2023-01-30T01:03:28.526Z,-0.02
2023-01-30T01:05:31.321Z,-0.11
2023-01-30T01:07:33.879Z,-0.20
2023-01-30T01:09:36.495Z,-0.26
2023-01-30T01:11:39.158Z,-0.05
2023-01-30T01:13:43.107Z,-0.14
2023-01-30T01:15:48.385Z,-0.16
2023-01-30T01:17:51.357Z,-0.20
2023-01-30T01:19:53.965Z,-0.20
2023-01-30T01:21:56.561Z,-0.09
2023-01-30T01:24:01.158Z,-0.18
2023-01-30T01:26:03.908Z,-0.19
2023-01-30T01:28:06.460Z,-0.21
2023-01-30T01:30:12.224Z,-0.20
2023-01-30T01:32:14.918Z,-0.21
2023-01-30T01:34:17.496Z,-0.24
2023-01-30T01:36:49.711Z,-0.22
2023-01-30T01:38:43.240Z,-0.22
2023-01-30T01:41:06.136Z,-0.23
2023-01-30T01:43:20.784Z,-0.23
2023-01-30T01:45:25.964Z,-0.21
2023-01-30T01:47:29.116Z,-0.27
2023-01-30T01:49:34.746Z,-0.29
2023-01-30T01:51:41.302Z,-0.32
2023-01-30T01:53:51.987Z,-0.39
2023-01-30T01:55:57.858Z,-0.42
2023-01-30T01:58:05.164Z,-0.33
2023-01-30T02:00:12.061Z,-0.39
2023-01-30T02:02:16.703Z,-0.45
2023-01-30T02:04:39.801Z,-0.49
2023-01-30T02:06:43.852Z,-0.52
2023-01-30T02:08:51.254Z,-0.43
2023-01-30T02:10:59.848Z,-0.50
2023-01-30T02:13:02.489Z,-0.54
2023-01-30T02:15:06.128Z,-0.46
2023-01-30T02:17:08.691Z,-0.59
2023-01-30T02:19:25.067Z,-0.59
2023-01-30T02:22:08.956Z,-0.68
2023-01-30T02:24:27.414Z,-0.61
2023-01-30T02:27:03.886Z,-0.46
2023-01-30T02:29:34.717Z,-0.54
2023-01-30T02:31:45.239Z,-0.63
2023-01-30T02:33:58.248Z,-0.67
2023-01-30T02:36:11.952Z,-0.73
2023-01-30T02:38:31.845Z,-0.78
2023-01-30T02:40:47.293Z,-0.77
2023-01-30T02:42:55.431Z,-0.76
2023-01-30T02:45:06.383Z,-0.82
2023-01-30T02:47:14.640Z,-0.81
2023-01-30T02:49:23.445Z,-0.78
2023-01-30T02:51:30.908Z,-0.85
2023-01-30T02:53:33.936Z,-0.83
2023-01-30T02:55:36.679Z,-0.85
2023-01-30T02:57:39.240Z,-0.83
2023-01-30T02:59:45.026Z,-0.90
2023-01-30T03:02:09.901Z,-0.78
2023-01-30T03:04:31.710Z,-0.75
2023-01-30T03:06:51.484Z,-0.81
2023-01-30T03:09:07.220Z,-0.64
2023-01-30T03:11:11.613Z,-0.66
2023-01-30T03:13:22.652Z,-0.71
2023-01-30T03:15:30.998Z,-0.75
2023-01-30T03:17:35.266Z,-0.65
2023-01-30T03:19:39.440Z,-0.58
2023-01-30T03:21:44.474Z,-0.34
2023-01-30T03:23:47.708Z,-0.46
2023-01-30T03:25:50.638Z,-0.58
2023-01-30T03:27:55.396Z,-0.62
2023-01-30T03:29:57.965Z,-0.64
2023-01-30T03:32:00.566Z,-0.70
2023-01-30T03:34:03.156Z,-0.43
2023-01-30T03:36:07.693Z,-0.39
2023-01-30T03:38:10.562Z,-0.56
2023-01-30T03:40:14.373Z,-0.38
2023-01-30T03:42:17.047Z,-0.47
2023-01-30T03:44:19.736Z,-0.42
2023-01-30T03:46:22.352Z,-0.13
2023-01-30T03:48:24.921Z,-0.29
2023-01-30T03:50:27.523Z,-0.16
2023-01-30T03:52:31.490Z,-0.10
2023-01-30T03:54:34.317Z,-0.10
2023-01-30T03:56:36.943Z,-0.09
2023-01-30T03:58:39.745Z,-0.06
2023-01-30T04:00:42.572Z,-0.25
2023-01-30T04:02:45.169Z,-0.37
2023-01-30T04:04:50.612Z,-0.23
2023-01-30T04:06:53.244Z,-0.25
2023-01-30T04:08:57.222Z,-0.32
2023-01-30T04:10:59.873Z,-0.36
2023-01-30T04:13:02.577Z,-0.29
2023-01-30T04:15:05.877Z,-0.21
2023-01-30T04:17:08.395Z,-0.14
2023-01-30T04:19:10.979Z,0.04
2023-01-30T04:21:14.102Z,-0.05
2023-01-30T04:23:16.698Z,0.08
2023-01-30T04:25:21.204Z,-0.02
2023-01-30T04:27:23.968Z,-0.14
2023-01-30T04:29:26.506Z,-0.26
2023-01-30T04:31:29.121Z,-0.13
2023-01-30T04:33:35.179Z,-0.06
2023-01-30T04:35:37.726Z,-0.03
2023-01-30T04:37:40.324Z,-0.14
2023-01-30T04:39:42.888Z,-0.02
2023-01-30T04:41:47.989Z,0.03
2023-01-30T04:43:50.531Z,0.07
2023-01-30T04:45:53.747Z,-0.12
2023-01-30T04:47:56.305Z,-0.08
2023-01-30T04:49:58.865Z,-0.14
2023-01-30T04:52:01.548Z,-0.15
2023-01-30T04:54:04.311Z,0.11
2023-01-30T04:56:08.248Z,0.13
2023-01-30T04:58:12.236Z,0.04
2023-01-30T05:00:15.355Z,-0.06
2023-01-30T05:02:17.979Z,0.06
2023-01-30T05:04:20.516Z,0.03
2023-01-30T05:06:24.194Z,0.03
2023-01-30T05:08:26.759Z,-0.23
2023-01-30T05:10:29.688Z,0.06
2023-01-30T05:12:32.260Z,-0.06
2023-01-30T05:14:36.183Z,-0.06
2023-01-30T05:16:38.735Z,-0.09
2023-01-30T05:18:41.700Z,-0.19
2023-01-30T05:20:44.271Z,-0.18
2023-01-30T05:22:46.827Z,0.10
2023-01-30T05:24:49.373Z,0.05
2023-01-30T05:26:51.918Z,0.22
2023-01-30T05:28:55.896Z,0.15
2023-01-30T05:31:03.433Z,0.06
2023-01-30T05:33:06.061Z,0.12
2023-01-30T05:35:09.483Z,0.05
2023-01-30T05:37:13.288Z,-0.02
2023-01-30T05:39:16.081Z,0.01
2023-01-30T05:41:19.170Z,0.05
2023-01-30T05:43:21.697Z,0.14
2023-01-30T05:45:24.254Z,0.12
2023-01-30T05:47:28.169Z,0.03
2023-01-30T05:49:30.858Z,-0.06
2023-01-30T05:51:33.537Z,0.04
2023-01-30T05:53:37.080Z,0.08
2023-01-30T05:55:39.656Z,0.15
2023-01-30T05:57:42.246Z,0.14
2023-01-30T05:59:44.788Z,-0.01
2023-01-30T06:01:47.398Z,-0.01
2023-01-30T06:03:51.497Z,0.20
2023-01-30T06:05:54.128Z,0.11
2023-01-30T06:07:56.699Z,0.22
2023-01-30T06:09:59.295Z,-0.08
2023-01-30T06:12:01.813Z,0.14
2023-01-30T06:14:04.418Z,0.27
2023-01-30T06:16:08.411Z,0.10
2023-01-30T06:18:11.098Z,0.03
2023-01-30T06:20:15.278Z,0.17
2023-01-30T06:22:17.810Z,0.12
2023-01-30T06:24:20.408Z,0.08
2023-01-30T06:26:23.006Z,0.24
2023-01-30T06:28:26.940Z,0.27
2023-01-30T06:30:29.506Z,0.08
2023-01-30T06:32:32.065Z,0.21
2023-01-30T06:34:34.659Z,0.23
2023-01-30T06:36:38.577Z,0.10
2023-01-30T06:38:41.167Z,0.07
2023-01-30T06:40:46.010Z,0.19
2023-01-30T06:42:49.541Z,0.23
2023-01-30T06:44:52.120Z,0.33
2023-01-30T06:46:57.639Z,0.41
2023-01-30T06:49:00.196Z,0.19
2023-01-30T06:51:02.807Z,0.26
2023-01-30T06:53:08.615Z,0.19
2023-01-30T06:55:12.079Z,0.15
2023-01-30T06:57:14.631Z,0.02
2023-01-30T06:59:17.230Z,0.13
2023-01-30T07:01:21.204Z,0.13
2023-01-30T07:03:23.870Z,0.11
2023-01-30T07:05:26.467Z,0.06
2023-01-30T07:07:29.206Z,0.30
2023-01-30T07:09:33.143Z,0.23
2023-01-30T07:11:35.702Z,0.31
2023-01-30T07:13:38.358Z,0.39
2023-01-30T07:15:41.004Z,0.37
2023-01-30T07:17:43.943Z,0.35
2023-01-30T07:19:46.799Z,0.43
2023-01-30T07:21:49.351Z,0.47
2023-01-30T07:23:51.952Z,0.45
2023-01-30T07:25:55.869Z,0.40
2023-01-30T07:28:01.867Z,0.31
2023-01-30T07:30:04.887Z,0.43
2023-01-30T07:32:09.014Z,0.41
2023-01-30T07:34:11.532Z,0.34
2023-01-30T07:36:14.147Z,0.64
2023-01-30T07:38:16.673Z,0.55
2023-01-30T07:40:20.403Z,0.56
2023-01-30T07:42:24.330Z,0.63
2023-01-30T07:44:26.897Z,0.51
2023-01-30T07:46:34.834Z,0.64
2023-01-30T07:48:37.463Z,0.79
2023-01-30T07:50:40.443Z,0.98
2023-01-30T07:52:42.980Z,0.80
2023-01-30T07:54:45.512Z,1.03
2023-01-30T07:56:48.083Z,0.97
2023-01-30T07:58:52.322Z,1.02
2023-01-30T08:00:56.625Z,1.07
2023-01-30T08:02:59.639Z,1.20
2023-01-30T08:05:03.980Z,1.23
2023-01-30T08:07:07.782Z,1.20
2023-01-30T08:09:10.473Z,1.26
2023-01-30T08:11:13.329Z,1.32
2023-01-30T08:13:16.110Z,1.32
2023-01-30T08:15:21.961Z,1.35
2023-01-30T08:17:25.419Z,1.35
2023-01-30T08:19:27.952Z,1.32
2023-01-30T08:21:30.473Z,1.33
2023-01-30T08:23:33.639Z,1.43
2023-01-30T08:25:36.770Z,1.47
2023-01-30T08:27:39.308Z,1.35
2023-01-30T08:29:41.911Z,1.46
2023-01-30T08:31:45.879Z,1.50
2023-01-30T08:33:49.137Z,1.50
2023-01-30T08:35:52.603Z,1.47
2023-01-30T08:37:55.412Z,1.46
2023-01-30T08:39:57.954Z,1.53
2023-01-30T08:42:00.494Z,1.56
2023-01-30T08:44:03.122Z,1.47
2023-01-30T08:46:06.171Z,1.41
2023-01-30T08:48:11.243Z,1.41
2023-01-30T08:50:13.806Z,1.37
2023-01-30T08:52:16.345Z,1.41
2023-01-30T08:54:18.897Z,1.43
2023-01-30T08:56:21.517Z,1.46
2023-01-30T08:58:24.104Z,1.44
2023-01-30T09:00:28.234Z,1.52
2023-01-30T09:02:30.903Z,1.80
2023-01-30T09:04:35.178Z,1.70
2023-01-30T09:06:37.732Z,1.64
2023-01-30T09:08:40.299Z,1.56
2023-01-30T09:10:42.886Z,1.59
2023-01-30T09:12:46.485Z,1.66
2023-01-30T09:14:49.036Z,1.67
2023-01-30T09:16:55.869Z,1.88
2023-01-30T09:18:58.486Z,1.96
2023-01-30T09:21:06.287Z,1.95
2023-01-30T09:23:08.977Z,1.95
2023-01-30T09:25:11.541Z,2.05
2023-01-30T09:27:14.115Z,2.13
2023-01-30T09:29:16.694Z,2.20
2023-01-30T09:31:19.417Z,2.14
2023-01-30T09:33:22.057Z,2.26
2023-01-30T09:35:24.595Z,2.08
2023-01-30T09:37:29.010Z,2.24
2023-01-30T09:39:31.571Z,2.27
2023-01-30T09:41:53.404Z,2.31
2023-01-30T09:44:16.232Z,2.37
2023-01-30T09:46:31.051Z,2.39
2023-01-30T09:48:42.471Z,2.42
2023-01-30T09:50:57.876Z,2.35
2023-01-30T09:53:10.306Z,2.35
2023-01-30T09:55:19.343Z,2.46
2023-01-30T09:57:24.297Z,2.42
2023-01-30T09:59:36.059Z,2.43
2023-01-30T10:01:41.863Z,2.53
2023-01-30T10:03:57.266Z,2.58
2023-01-30T10:06:06.032Z,2.66
2023-01-30T10:08:24.575Z,2.68
2023-01-30T10:10:46.259Z,2.68
2023-01-30T10:12:59.416Z,2.67
2023-01-30T10:15:28.754Z,2.62
2023-01-30T10:17:38.379Z,2.83
2023-01-30T10:19:55.418Z,2.77
2023-01-30T10:22:03.351Z,2.94
2023-01-30T10:24:24.108Z,3.00
2023-01-30T10:26:29.519Z,2.96
2023-01-30T10:28:35.946Z,2.95
2023-01-30T10:30:42.544Z,2.98
2023-01-30T10:32:49.813Z,2.94
2023-01-30T10:34:56.859Z,3.04
2023-01-30T10:37:08.479Z,3.04
2023-01-30T10:39:23.580Z,3.11
2023-01-30T10:41:32.023Z,3.15
2023-01-30T10:43:41.529Z,3.22
2023-01-30T10:45:52.383Z,3.15
2023-01-30T10:48:05.794Z,3.07
2023-01-30T10:50:16.651Z,3.12
2023-01-30T10:52:28.469Z,3.18
2023-01-30T10:54:38.702Z,3.23
2023-01-30T10:56:48.368Z,3.24
2023-01-30T10:58:59.671Z,3.25
2023-01-30T11:01:06.840Z,3.22
2023-01-30T11:03:27.414Z,3.32
2023-01-30T11:05:39.525Z,3.33
2023-01-30T11:07:44.910Z,3.38
2023-01-30T11:09:50.007Z,3.41
2023-01-30T11:11:54.377Z,3.33
2023-01-30T11:14:07.188Z,3.32
2023-01-30T11:16:13.219Z,3.41
2023-01-30T11:20:41.523Z,3.43
2023-01-30T11:22:48.923Z,3.40
2023-01-30T11:25:02.120Z,3.39
2023-01-30T11:27:12.589Z,3.43
2023-01-30T11:29:27.626Z,3.53
2023-01-30T11:31:40.932Z,3.52
2023-01-30T11:33:44.316Z,3.62
2023-01-30T11:35:54.851Z,3.64
2023-01-30T11:38:12.592Z,3.75
2023-01-30T11:40:26.422Z,3.77
2023-01-30T11:42:32.527Z,3.69
2023-01-30T11:44:37.742Z,3.75
2023-01-30T11:46:43.903Z,3.73
2023-01-30T11:49:02.971Z,3.70
2023-01-30T11:51:18.023Z,3.79
2023-01-30T11:53:29.196Z,3.85
2023-01-30T11:55:36.424Z,3.76
2023-01-30T11:57:44.317Z,3.71
2023-01-30T11:59:50.848Z,3.83
2023-01-30T12:02:02.661Z,3.80
2023-01-30T12:04:10.085Z,3.96
2023-01-30T12:06:13.012Z,3.93
2023-01-30T12:08:40.700Z,3.92
2023-01-30T12:10:48.873Z,3.94
2023-01-30T12:12:53.441Z,3.89
2023-01-30T12:15:05.849Z,3.98
2023-01-30T12:17:15.714Z,4.00
2023-01-30T12:19:30.155Z,3.90
2023-01-30T12:21:41.520Z,3.76
2023-01-30T12:23:47.374Z,3.78
2023-01-30T12:25:59.992Z,3.83
2023-01-30T12:28:08.967Z,3.80
2023-01-30T12:30:23.523Z,3.73
2023-01-30T12:32:28.544Z,3.82
2023-01-30T12:34:31.805Z,3.73
2023-01-30T12:36:46.342Z,3.80
2023-01-30T12:39:05.900Z,3.91
2023-01-30T12:41:25.200Z,3.88
2023-01-30T12:43:50.696Z,3.84
2023-01-30T12:46:05.511Z,3.75
2023-01-30T12:48:22.954Z,3.66
2023-01-30T12:50:33.198Z,3.77
2023-01-30T12:53:23.019Z,3.76
2023-01-30T12:55:37.480Z,3.71
2023-01-30T12:57:47.210Z,3.68
2023-01-30T13:00:03.484Z,3.59
2023-01-30T13:02:26.509Z,3.61
2023-01-30T13:04:56.329Z,3.65
2023-01-30T13:07:16.343Z,3.76
2023-01-30T13:09:37.776Z,3.80
2023-01-30T13:11:49.141Z,3.72
2023-01-30T13:13:57.744Z,3.72
2023-01-30T13:16:07.770Z,3.68
2023-01-30T13:18:16.550Z,3.69
2023-01-30T13:20:32.032Z,3.71
2023-01-30T13:22:42.784Z,3.81
2023-01-30T13:24:55.831Z,3.78
2023-01-30T13:27:02.026Z,3.73
2023-01-30T13:29:14.204Z,3.74
2023-01-30T13:31:21.325Z,3.68
2023-01-30T13:33:28.109Z,3.73
2023-01-30T13:35:34.468Z,3.66
2023-01-30T13:37:40.444Z,3.75
2023-01-30T13:39:48.508Z,3.71
2023-01-30T13:41:57.465Z,3.75
2023-01-30T13:44:01.644Z,3.71
2023-01-30T13:46:08.966Z,3.75
2023-01-30T13:48:25.576Z,3.70
2023-01-30T13:50:48.277Z,3.69
2023-01-30T13:52:57.993Z,3.59
2023-01-30T13:55:09.998Z,3.65
2023-01-30T13:57:25.466Z,3.61
2023-01-30T13:59:45.200Z,3.61
2023-01-30T14:02:17.493Z,3.76
2023-01-30T14:04:45.136Z,3.61
2023-01-30T14:06:47.750Z,3.70
2023-01-30T14:08:53.458Z,3.66
2023-01-30T14:10:58.335Z,3.64
2023-01-30T14:13:07.017Z,3.56
2023-01-30T14:15:28.824Z,3.58
2023-01-30T14:17:33.021Z,3.49
2023-01-30T14:19:44.633Z,3.58
2023-01-30T14:21:55.758Z,3.64
2023-01-30T14:24:01.583Z,3.57
2023-01-30T14:26:04.828Z,3.63
2023-01-30T14:28:52.161Z,3.56
2023-01-30T14:30:56.289Z,3.71
2023-01-30T14:33:01.998Z,3.66
2023-01-30T14:35:24.815Z,3.52
2023-01-30T14:37:46.670Z,3.46
2023-01-30T14:39:54.005Z,3.35
2023-01-30T14:42:25.988Z,3.32
2023-01-30T14:45:02.965Z,3.41
2023-01-30T14:47:42.231Z,3.32
2023-01-30T14:49:44.962Z,3.19
2023-01-30T14:51:48.818Z,3.17
2023-01-30T14:53:55.201Z,3.17
2023-01-30T14:56:01.989Z,3.13
2023-01-30T14:58:05.187Z,3.29
2023-01-30T15:00:19.425Z,3.24
2023-01-30T15:02:27.398Z,3.17
2023-01-30T15:04:32.901Z,3.09
2023-01-30T15:06:38.224Z,3.08
2023-01-30T15:08:44.082Z,2.99
2023-01-30T15:10:59.954Z,2.95
2023-01-30T15:13:32.238Z,3.06
2023-01-30T15:15:46.189Z,3.10
2023-01-30T15:18:08.369Z,3.11
2023-01-30T15:20:21.758Z,3.07
2023-01-30T15:22:37.467Z,3.13
2023-01-30T15:25:22.910Z,3.17
2023-01-30T15:27:31.970Z,3.09
2023-01-30T15:30:12.503Z,3.05
2023-01-30T15:32:19.087Z,3.06
2023-01-30T15:34:22.443Z,2.99
2023-01-30T15:36:28.698Z,2.95
2023-01-30T15:38:34.712Z,2.99
2023-01-30T15:40:37.911Z,2.97
2023-01-30T15:42:40.641Z,3.07
2023-01-30T15:44:58.517Z,2.96
2023-01-30T15:47:16.440Z,2.95
2023-01-30T15:49:53.270Z,2.99
2023-01-30T15:52:00.990Z,2.84
2023-01-30T15:54:11.159Z,2.80
2023-01-30T15:56:21.598Z,2.74
2023-01-30T15:58:25.655Z,2.67
2023-01-30T16:00:31.610Z,2.71
2023-01-30T16:02:36.973Z,2.84
2023-01-30T16:04:39.637Z,2.91
2023-01-30T16:06:42.248Z,2.92
2023-01-30T16:08:56.201Z,2.99
2023-01-30T16:11:03.043Z,2.94
2023-01-30T16:13:05.804Z,2.86
2023-01-30T16:15:19.576Z,2.82
2023-01-30T16:17:22.966Z,2.81
2023-01-30T16:19:29.476Z,2.94
2023-01-30T16:21:35.311Z,2.85
2023-01-30T16:23:41.430Z,3.00
2023-01-30T16:25:48.311Z,2.97
2023-01-30T16:27:53.698Z,2.86
2023-01-30T16:29:58.772Z,2.75
2023-01-30T16:32:01.857Z,2.75
2023-01-30T16:34:05.403Z,2.62
2023-01-30T16:36:34.004Z,2.85
2023-01-30T16:38:39.397Z,2.84
2023-01-30T16:40:47.178Z,3.03
2023-01-30T16:43:01.943Z,2.91
2023-01-30T16:46:06.188Z,2.93
2023-01-30T16:48:25.466Z,2.94
2023-01-30T16:50:28.150Z,2.89
2023-01-30T16:52:37.006Z,2.87
2023-01-30T16:54:46.134Z,2.87
2023-01-30T16:56:52.461Z,2.99
2023-01-30T16:58:59.002Z,3.07
2023-01-30T17:01:03.437Z,3.01
2023-01-30T17:03:08.321Z,2.88
2023-01-30T17:05:19.520Z,2.85
2023-01-30T17:07:35.999Z,2.76
2023-01-30T17:09:42.923Z,2.94
2023-01-30T17:11:45.509Z,2.96
2023-01-30T17:13:48.271Z,2.97
2023-01-30T17:15:52.236Z,2.76
2023-01-30T17:17:54.804Z,2.71
2023-01-30T17:19:59.530Z,2.78
2023-01-30T17:22:04.109Z,2.88
2023-01-30T17:24:07.788Z,2.82
2023-01-30T17:26:12.955Z,2.92
2023-01-30T17:28:21.033Z,2.89
2023-01-30T17:30:23.690Z,2.84
2023-01-30T17:32:27.804Z,2.91
2023-01-30T17:34:30.324Z,2.88
2023-01-30T17:36:32.930Z,3.04
2023-01-30T17:38:35.522Z,2.79
2023-01-30T17:40:39.242Z,2.76
2023-01-30T17:42:41.816Z,2.80
2023-01-30T17:44:44.486Z,2.82
2023-01-30T17:46:48.918Z,2.83
2023-01-30T17:48:52.859Z,2.76
2023-01-30T17:50:55.430Z,2.71
2023-01-30T17:52:57.986Z,2.82
2023-01-30T17:55:00.583Z,2.99
2023-01-30T17:57:05.118Z,2.91
2023-01-30T17:59:13.582Z,2.93
2023-01-30T18:01:17.870Z,2.98
2023-01-30T18:03:20.564Z,3.02
2023-01-30T18:05:24.660Z,2.86
2023-01-30T18:07:30.289Z,2.85
2023-01-30T18:09:33.500Z,2.95
2023-01-30T18:11:36.178Z,2.91
2023-01-30T18:13:40.460Z,2.94
2023-01-30T18:15:43.086Z,2.84
2023-01-30T18:17:47.939Z,3.05
2023-01-30T18:19:50.543Z,2.91
2023-01-30T18:21:54.491Z,2.86
2023-01-30T18:23:57.149Z,2.96
2023-01-30T18:25:59.741Z,3.02
2023-01-30T18:28:02.991Z,3.07
2023-01-30T18:30:06.335Z,2.92
2023-01-30T18:32:08.946Z,2.88
2023-01-30T18:34:12.353Z,3.02
2023-01-30T18:36:17.356Z,2.96
2023-01-30T18:38:21.254Z,2.87
2023-01-30T18:40:24.707Z,3.06
2023-01-30T18:42:27.313Z,3.00
2023-01-30T18:44:29.869Z,2.98
2023-01-30T18:46:33.605Z,3.08
2023-01-30T18:48:36.959Z,3.04
2023-01-30T18:50:39.542Z,2.89
2023-01-30T18:52:42.096Z,3.03
2023-01-30T18:54:45.971Z,3.00
2023-01-30T18:56:48.555Z,3.06
2023-01-30T18:58:52.315Z,3.17
2023-01-30T19:00:54.909Z,3.13
2023-01-30T19:02:57.522Z,2.99
2023-01-30T19:05:00.129Z,2.97
2023-01-30T19:07:02.727Z,3.17
2023-01-30T19:09:06.349Z,2.97
2023-01-30T19:11:29.413Z,2.99
2023-01-30T19:13:37.312Z,3.04
2023-01-30T19:15:42.363Z,3.02
2023-01-30T19:17:47.858Z,3.08
2023-01-30T19:19:50.403Z,3.11
2023-01-30T19:21:53.318Z,3.04
2023-01-30T19:23:56.363Z,3.06
2023-01-30T19:26:00.893Z,2.97
2023-01-30T19:28:06.486Z,3.00
2023-01-30T19:30:13.083Z,2.97
2023-01-30T19:32:15.647Z,2.98
2023-01-30T19:34:18.672Z,2.95
2023-01-30T19:36:23.305Z,2.88
2023-01-30T19:38:25.932Z,2.79
2023-01-30T19:40:28.563Z,2.66
2023-01-30T19:42:31.130Z,2.67
2023-01-30T19:44:35.043Z,2.55
2023-01-30T19:46:37.709Z,2.59
2023-01-30T19:48:41.235Z,2.68
2023-01-30T19:50:43.767Z,2.78
2023-01-30T19:52:47.267Z,2.71
2023-01-30T19:54:49.783Z,2.74
2023-01-30T19:56:52.375Z,2.74
2023-01-30T19:58:57.122Z,2.77
2023-01-30T20:01:07.370Z,2.83
2023-01-30T20:03:12.748Z,2.79
2023-01-30T20:05:16.006Z,2.79
2023-01-30T20:07:18.556Z,2.86
2023-01-30T20:09:21.140Z,2.89
2023-01-30T20:11:23.789Z,2.75
2023-01-30T20:13:26.416Z,2.85
2023-01-30T20:15:29.225Z,2.81
2023-01-30T20:17:35.016Z,3.10
2023-01-30T20:19:37.668Z,2.98
2023-01-30T20:21:40.225Z,3.07
2023-01-30T20:23:44.769Z,2.98
2023-01-30T20:25:48.642Z,2.87
2023-01-30T20:27:51.199Z,3.10
2023-01-30T20:29:53.753Z,3.09
2023-01-30T20:31:56.401Z,2.99
2023-01-30T20:34:01.939Z,3.04
2023-01-30T20:36:05.977Z,3.16
2023-01-30T20:38:08.672Z,3.11
2023-01-30T20:40:12.474Z,3.10
2023-01-30T20:42:15.847Z,2.98
2023-01-30T20:44:20.453Z,3.08
2023-01-30T20:46:24.615Z,3.04
2023-01-30T20:48:27.234Z,3.17
2023-01-30T20:50:31.131Z,3.09
2023-01-30T20:52:33.717Z,3.01
2023-01-30T20:54:37.205Z,3.03
2023-01-30T20:56:43.660Z,2.98
2023-01-30T20:58:46.811Z,2.97
2023-01-30T21:00:49.399Z,3.10
2023-01-30T21:02:53.041Z,3.18
2023-01-30T21:04:55.566Z,3.06
2023-01-30T21:06:59.471Z,3.21
2023-01-30T21:09:03.759Z,3.06
2023-01-30T21:11:08.705Z,3.06
2023-01-30T21:13:11.292Z,3.00
2023-01-30T21:15:13.945Z,3.23
2023-01-30T21:17:16.536Z,3.17
2023-01-30T21:19:19.274Z,3.09
2023-01-30T21:21:24.922Z,3.09
2023-01-30T21:23:29.473Z,3.15
2023-01-30T21:25:32.303Z,3.09
2023-01-30T21:27:34.879Z,3.34
2023-01-30T21:29:37.891Z,3.21
2023-01-30T21:31:41.520Z,3.03
2023-01-30T21:33:44.710Z,3.16
2023-01-30T21:35:47.290Z,3.18
2023-01-30T21:38:07.259Z,3.12
2023-01-30T21:40:32.898Z,3.06
2023-01-30T21:42:53.660Z,3.26
2023-01-30T21:44:56.204Z,3.08
2023-01-30T21:46:58.808Z,3.17
2023-01-30T21:49:01.345Z,3.10
2023-01-30T21:51:11.786Z,3.16
2023-01-30T21:53:14.357Z,3.24
2023-01-30T21:55:18.668Z,3.21
2023-01-30T21:57:21.507Z,3.21
2023-01-30T21:59:24.035Z,3.18
2023-01-30T22:01:27.010Z,3.00
2023-01-30T22:03:29.643Z,3.06
2023-01-30T22:05:36.551Z,3.25
2023-01-30T22:07:39.897Z,3.28
2023-01-30T22:09:42.445Z,3.20
2023-01-30T22:11:46.378Z,3.15
2023-01-30T22:13:49.226Z,3.11
2023-01-30T22:15:51.776Z,3.07
2023-01-30T22:17:54.420Z,3.04
2023-01-30T22:19:57.010Z,3.01
2023-01-30T22:21:59.548Z,2.94
2023-01-30T22:24:03.521Z,2.93
2023-01-30T22:26:06.707Z,3.02
2023-01-30T22:28:10.592Z,3.03
2023-01-30T22:30:13.761Z,3.15
2023-01-30T22:32:16.299Z,3.04
2023-01-30T22:34:19.046Z,3.00
2023-01-30T22:36:24.015Z,3.02
2023-01-30T22:38:27.452Z,2.91
2023-01-30T22:40:29.988Z,2.92
2023-01-30T22:42:32.566Z,2.87
2023-01-30T22:44:36.406Z,2.89
2023-01-30T22:46:41.279Z,2.89
2023-01-30T22:48:44.405Z,2.77
2023-01-30T22:50:46.972Z,2.75
2023-01-30T22:52:49.498Z,2.77
2023-01-30T22:54:52.078Z,2.76
2023-01-30T22:56:54.696Z,2.97
2023-01-30T22:58:57.865Z,2.91
2023-01-30T23:01:14.785Z,2.86
2023-01-30T23:03:17.330Z,2.98
2023-01-30T23:05:20.309Z,2.96
2023-01-30T23:07:23.080Z,3.04
2023-01-30T23:09:25.600Z,3.12
2023-01-30T23:11:30.983Z,3.15
2023-01-30T23:13:32.643Z,3.09
2023-01-30T23:15:39.073Z,3.11
2023-01-30T23:18:00.843Z,3.09
2023-01-30T23:20:03.366Z,3.07
2023-01-30T23:22:05.894Z,2.96
2023-01-30T23:24:11.296Z,2.97
2023-01-30T23:26:14.207Z,2.94
2023-01-30T23:28:16.872Z,2.99
2023-01-30T23:30:19.402Z,3.10
2023-01-30T23:32:23.509Z,3.16
2023-01-30T23:34:27.426Z,3.16
2023-01-30T23:36:30.795Z,3.11
2023-01-30T23:38:33.227Z,3.07
2023-01-30T23:40:35.826Z,3.04
2023-01-30T23:42:38.827Z,2.94
2023-01-30T23:44:41.426Z,3.08
2023-01-30T23:46:43.991Z,3.13
2023-01-30T23:48:48.161Z,2.94
2023-01-30T23:50:52.098Z,3.06
2023-01-30T23:52:54.662Z,2.98
2023-01-30T23:54:57.211Z,3.06
2023-01-30T23:56:59.805Z,3.04
2023-01-30T23:59:03.185Z,3.10
